createdAt,value
2018-10-05T00:00:12.209Z,63.3
2018-10-05T00:01:01.696Z,63.3
2018-10-05T00:01:52.296Z,63.3
2018-10-05T00:02:43.239Z,63.3
2018-10-05T00:03:32.431Z,63.3
2018-10-05T00:04:22.799Z,63.3
2018-10-05T00:05:12.269Z,63.3
2018-10-05T00:06:02.382Z,63.2
2018-10-05T00:06:52.679Z,63.3
2018-10-05T00:25:11.957Z,63.1
2018-10-05T00:26:01.985Z,63.1
2018-10-05T00:26:51.720Z,63.1
2018-10-05T00:27:41.783Z,63
2018-10-05T00:28:31.863Z,63.1
2018-10-05T00:29:21.616Z,63
2018-10-05T00:30:11.905Z,63
2018-10-05T00:31:01.785Z,63
2018-10-05T00:31:52.382Z,63
2018-10-05T00:32:42.203Z,63
2018-10-05T00:33:32.215Z,62.9
2018-10-05T00:34:22.005Z,63
2018-10-05T00:35:12.329Z,62.9
2018-10-05T00:36:02.410Z,62.9
2018-10-05T00:36:52.446Z,62.9
2018-10-05T00:37:42.534Z,62.9
2018-10-05T00:38:32.854Z,62.9
2018-10-05T00:39:23.318Z,62.9
2018-10-05T00:40:12.996Z,62.9
2018-10-05T00:41:03.053Z,62.9
2018-10-05T00:41:53.157Z,62.9
2018-10-05T00:42:42.896Z,62.9
2018-10-05T00:43:32.943Z,62.9
2018-10-05T00:44:22.414Z,62.9
2018-10-05T00:45:13.843Z,62.9
2018-10-05T00:46:03.413Z,62.9
2018-10-05T00:46:53.198Z,62.9
2018-10-05T00:47:43.535Z,62.9
2018-10-05T00:48:33.021Z,62.8
2018-10-05T00:49:23.623Z,62.9
2018-10-05T00:50:13.414Z,62.8
2018-10-05T00:51:03.498Z,62.8
2018-10-05T00:51:53.548Z,62.8
2018-10-05T00:52:44.171Z,62.8
2018-10-05T00:53:35.043Z,62.8
2018-10-05T00:54:23.190Z,62.8
2018-10-05T00:55:13.842Z,62.8
2018-10-05T00:56:03.881Z,62.8
2018-10-05T00:56:53.910Z,62.8
2018-10-05T00:57:44.049Z,62.8
2018-10-05T00:58:34.055Z,62.8
2018-10-05T00:59:24.378Z,62.8
2018-10-05T01:00:14.404Z,62.8
2018-10-05T01:01:03.713Z,62.8
2018-10-05T01:01:54.597Z,62.8
2018-10-05T01:02:44.707Z,62.8
2018-10-05T01:03:34.689Z,62.8
2018-10-05T01:04:24.494Z,62.7
2018-10-05T01:05:29.162Z,62.7
2018-10-05T01:06:04.887Z,62.7
2018-10-05T01:06:54.367Z,62.7
2018-10-05T01:07:45.003Z,62.7
2018-10-05T01:08:34.756Z,62.7
2018-10-05T01:09:25.137Z,62.7
2018-10-05T01:10:14.615Z,62.6
2018-10-05T01:11:05.250Z,62.6
2018-10-05T01:11:55.015Z,62.6
2018-10-05T01:12:45.097Z,62.6
2018-10-05T01:13:35.674Z,62.6
2018-10-05T01:14:24.708Z,62.6
2018-10-05T01:15:15.013Z,62.6
2018-10-05T01:16:05.346Z,62.6
2018-10-05T01:16:55.419Z,62.6
2018-10-05T01:17:45.755Z,62.6
2018-10-05T01:18:35.796Z,62.6
2018-10-05T01:19:25.596Z,62.6
2018-10-05T01:20:15.075Z,62.6
2018-10-05T01:21:05.994Z,62.6
2018-10-05T01:21:56.021Z,62.6
2018-10-05T01:22:45.581Z,62.6
2018-10-05T01:23:36.182Z,62.6
2018-10-05T01:24:25.118Z,62.5
2018-10-05T01:25:16.022Z,62.5
2018-10-05T01:26:06.602Z,62.5
2018-10-05T01:26:56.133Z,62.5
2018-10-05T01:27:45.936Z,62.5
2018-10-05T01:28:36.579Z,62.5
2018-10-05T01:29:26.070Z,62.5
2018-10-05T01:30:16.088Z,62.5
2018-10-05T01:31:06.771Z,62.4
2018-10-05T01:31:56.271Z,62.4
2018-10-05T01:32:46.846Z,62.4
2018-10-05T01:33:36.926Z,62.4
2018-10-05T01:34:26.696Z,62.4
2018-10-05T01:35:16.748Z,62.4
2018-10-05T01:36:06.831Z,62.4
2018-10-05T01:36:57.171Z,62.4
2018-10-05T01:37:46.931Z,62.4
2018-10-05T01:38:37.337Z,62.4
2018-10-05T01:39:27.346Z,62.4
2018-10-05T01:40:17.408Z,62.4
2018-10-05T01:41:07.469Z,62.4
2018-10-05T01:41:57.186Z,62.4
2018-10-05T01:42:47.316Z,62.4
2018-10-05T01:43:37.673Z,62.3
2018-10-05T01:44:27.756Z,62.4
2018-10-05T01:45:17.835Z,62.3
2018-10-05T01:46:07.278Z,62.3
2018-10-05T01:46:57.862Z,62.3
2018-10-05T01:47:46.548Z,62.3
2018-10-05T01:48:37.457Z,62.3
2018-10-05T01:49:28.058Z,62.3
2018-10-05T01:50:18.173Z,62.3
2018-10-05T01:51:07.660Z,62.3
2018-10-05T01:51:58.300Z,62.3
2018-10-05T01:52:48.065Z,62.3
2018-10-05T01:53:38.130Z,62.3
2018-10-05T01:54:28.480Z,62.3
2018-10-05T01:55:18.006Z,62.3
2018-10-05T01:56:07.718Z,62.3
2018-10-05T01:56:58.625Z,62.3
2018-10-05T01:57:48.895Z,62.2
2018-10-05T01:58:38.486Z,62.2
2018-10-05T01:59:29.036Z,62.2
2018-10-05T02:00:18.892Z,62.2
2018-10-05T02:01:08.713Z,62.2
2018-10-05T02:01:59.337Z,62.2
2018-10-05T02:02:48.799Z,62.2
2018-10-05T02:03:39.122Z,62.2
2018-10-05T02:04:28.617Z,62.2
2018-10-05T02:05:18.682Z,62.1
2018-10-05T02:06:09.030Z,62.2
2018-10-05T02:06:58.547Z,62.1
2018-10-05T02:07:49.692Z,62.1
2018-10-05T02:08:38.937Z,62.1
2018-10-05T02:09:29.824Z,62.1
2018-10-05T02:10:19.094Z,62.1
2018-10-05T02:11:09.126Z,62.1
2018-10-05T02:11:59.747Z,62.1
2018-10-05T02:12:49.001Z,62.1
2018-10-05T02:13:39.857Z,62.1
2018-10-05T02:14:29.914Z,62.1
2018-10-05T02:15:19.714Z,62.1
2018-10-05T02:16:09.774Z,62.1
2018-10-05T02:17:00.145Z,62.1
2018-10-05T02:18:04.809Z,62
2018-10-05T02:18:40.256Z,62
2018-10-05T02:19:30.308Z,62
2018-10-05T02:20:20.119Z,62.1
2018-10-05T02:21:09.604Z,62
2018-10-05T02:21:59.935Z,62
2018-10-05T02:22:50.546Z,62
2018-10-05T02:23:40.351Z,62
2018-10-05T02:24:30.436Z,62
2018-10-05T02:25:20.418Z,62
2018-10-05T02:26:10.978Z,61.9
2018-10-05T02:27:00.338Z,62
2018-10-05T02:27:51.175Z,61.9
2018-10-05T02:28:40.705Z,61.9
2018-10-05T02:29:30.502Z,61.9
2018-10-05T02:30:20.830Z,61.9
2018-10-05T02:31:10.890Z,61.9
2018-10-05T02:32:00.970Z,61.9
2018-10-05T02:32:51.644Z,61.9
2018-10-05T02:33:41.344Z,61.9
2018-10-05T02:34:31.405Z,61.9
2018-10-05T02:35:36.143Z,61.9
2018-10-05T02:36:11.558Z,61.9
2018-10-05T02:37:16.227Z,61.9
2018-10-05T02:37:51.680Z,61.9
2018-10-05T02:38:41.662Z,61.9
2018-10-05T02:39:31.725Z,61.8
2018-10-05T02:40:21.308Z,61.8
2018-10-05T02:41:26.045Z,61.8
2018-10-05T02:42:01.975Z,61.8
2018-10-05T02:42:51.684Z,61.8
2018-10-05T02:43:42.079Z,61.8
2018-10-05T02:44:31.898Z,61.8
2018-10-05T02:45:22.217Z,61.8
2018-10-05T02:46:12.293Z,61.8
2018-10-05T02:47:02.032Z,61.8
2018-10-05T02:47:52.390Z,61.8
2018-10-05T02:48:42.466Z,61.8
2018-10-05T02:49:32.522Z,61.8
2018-10-05T02:50:22.584Z,61.8
2018-10-05T02:51:12.947Z,61.8
2018-10-05T02:52:02.734Z,61.8
2018-10-05T02:52:52.479Z,61.8
2018-10-05T02:53:42.777Z,61.8
2018-10-05T02:54:32.597Z,61.8
2018-10-05T02:55:22.094Z,61.7
2018-10-05T02:56:13.031Z,61.7
2018-10-05T02:57:02.515Z,61.7
2018-10-05T02:57:52.856Z,61.7
2018-10-05T02:58:42.709Z,61.7
2018-10-05T02:59:33.254Z,61.7
2018-10-05T03:00:23.017Z,61.7
2018-10-05T03:01:13.573Z,61.6
2018-10-05T03:02:03.173Z,61.7
2018-10-05T03:02:52.761Z,61.6
2018-10-05T03:03:43.593Z,61.6
2018-10-05T03:04:33.338Z,61.6
2018-10-05T03:05:23.731Z,61.6
2018-10-05T03:06:13.761Z,61.6
2018-10-05T03:07:03.528Z,61.6
2018-10-05T03:07:53.859Z,61.6
2018-10-05T03:08:44.233Z,61.6
2018-10-05T03:09:33.693Z,61.6
2018-10-05T03:10:23.803Z,61.6
2018-10-05T03:11:13.265Z,61.6
2018-10-05T03:12:04.502Z,61.6
2018-10-05T03:12:54.265Z,61.6
2018-10-05T03:13:44.287Z,61.6
2018-10-05T03:14:34.077Z,61.6
2018-10-05T03:15:24.164Z,61.6
2018-10-05T03:16:14.192Z,61.5
2018-10-05T03:17:04.265Z,61.5
2018-10-05T03:17:53.780Z,61.5
2018-10-05T03:18:44.680Z,61.5
2018-10-05T03:19:33.853Z,61.5
2018-10-05T03:20:24.520Z,61.5
2018-10-05T03:21:14.289Z,61.5
2018-10-05T03:22:04.959Z,61.4
2018-10-05T03:22:54.979Z,61.5
2018-10-05T03:23:44.739Z,61.4
2018-10-05T03:24:35.110Z,61.4
2018-10-05T03:25:26.010Z,61.4
2018-10-05T03:26:15.220Z,61.4
2018-10-05T03:27:04.725Z,61.4
2018-10-05T03:27:55.346Z,61.4
2018-10-05T03:28:45.669Z,61.4
2018-10-05T03:29:35.482Z,61.4
2018-10-05T03:30:25.576Z,61.4
2018-10-05T03:31:15.060Z,61.4
2018-10-05T03:32:05.416Z,61.4
2018-10-05T03:32:55.879Z,61.4
2018-10-05T03:33:45.526Z,61.4
2018-10-05T03:34:35.551Z,61.3
2018-10-05T03:35:26.181Z,61.3
2018-10-05T03:36:15.916Z,61.3
2018-10-05T03:37:05.966Z,61.3
2018-10-05T03:37:56.076Z,61.3
2018-10-05T03:38:46.150Z,61.3
2018-10-05T03:39:36.496Z,61.3
2018-10-05T03:40:25.986Z,61.3
2018-10-05T03:41:16.033Z,61.3
2018-10-05T03:42:06.091Z,61.3
2018-10-05T03:42:56.156Z,61.3
2018-10-05T03:43:46.513Z,61.3
2018-10-05T03:44:36.548Z,61.3
2018-10-05T03:45:26.648Z,61.3
2018-10-05T03:46:16.733Z,61.3
2018-10-05T03:47:06.466Z,61.3
2018-10-05T03:47:56.752Z,61.3
2018-10-05T03:48:46.048Z,61.3
2018-10-05T03:49:36.102Z,61.2
2018-10-05T03:50:26.463Z,61.2
2018-10-05T03:51:17.065Z,61.2
2018-10-05T03:52:06.848Z,61.2
2018-10-05T03:52:56.934Z,61.2
2018-10-05T03:53:46.680Z,61.2
2018-10-05T03:54:37.308Z,61.2
2018-10-05T03:55:26.552Z,61.2
2018-10-05T03:56:17.172Z,61.2
2018-10-05T03:57:07.234Z,61.1
2018-10-05T03:57:57.344Z,61.1
2018-10-05T03:58:47.610Z,61.1
2018-10-05T03:59:37.410Z,61.1
2018-10-05T04:00:27.492Z,61.1
2018-10-05T04:01:17.504Z,61.1
2018-10-05T04:02:07.578Z,61.1
2018-10-05T04:02:57.078Z,61.1
2018-10-05T04:03:47.657Z,61.1
2018-10-05T04:04:37.592Z,61.1
2018-10-05T04:05:28.115Z,61.1
2018-10-05T04:06:18.161Z,61.1
2018-10-05T04:07:07.986Z,61.1
2018-10-05T04:07:57.412Z,61.1
2018-10-05T04:08:48.089Z,61
2018-10-05T04:09:38.165Z,61.1
2018-10-05T04:10:27.646Z,61
2018-10-05T04:11:20.112Z,61
2018-10-05T04:12:08.051Z,61
2018-10-05T04:12:58.132Z,61
2018-10-05T04:13:48.156Z,61
2018-10-05T04:14:38.504Z,61
2018-10-05T04:15:28.286Z,61
2018-10-05T04:16:18.924Z,60.9
2018-10-05T04:17:08.909Z,60.9
2018-10-05T04:17:58.743Z,60.9
2018-10-05T04:18:48.824Z,60.9
2018-10-05T04:19:38.857Z,60.9
2018-10-05T04:20:28.947Z,60.9
2018-10-05T04:21:19.055Z,60.9
2018-10-05T04:22:09.098Z,60.9
2018-10-05T04:22:59.154Z,60.9
2018-10-05T04:23:48.911Z,60.9
2018-10-05T04:24:38.773Z,60.9
2018-10-05T04:25:29.303Z,60.9
2018-10-05T04:26:20.921Z,60.9
2018-10-05T04:27:10.130Z,60.9
2018-10-05T04:27:59.314Z,60.9
2018-10-05T04:28:49.536Z,60.9
2018-10-05T04:29:39.347Z,60.8
2018-10-05T04:30:29.668Z,60.8
2018-10-05T04:31:19.548Z,60.8
2018-10-05T04:32:09.605Z,60.8
2018-10-05T04:32:59.657Z,60.8
2018-10-05T04:33:49.440Z,60.8
2018-10-05T04:34:38.908Z,60.8
2018-10-05T04:35:30.253Z,60.8
2018-10-05T04:36:19.889Z,60.8
2018-10-05T04:54:32.912Z,60.6
2018-10-05T04:55:24.004Z,60.6
2018-10-05T04:56:14.074Z,60.6
2018-10-05T04:57:03.956Z,60.6
2018-10-05T04:57:53.673Z,60.6
2018-10-05T04:58:43.711Z,60.6
2018-10-05T04:59:34.572Z,60.6
2018-10-05T05:00:24.332Z,60.6
2018-10-05T05:01:13.916Z,60.6
2018-10-05T05:02:03.702Z,60.6
2018-10-05T05:02:54.247Z,60.5
2018-10-05T05:03:44.132Z,60.5
2018-10-05T05:04:34.653Z,60.5
2018-10-05T05:05:23.971Z,60.5
2018-10-05T05:06:13.926Z,60.5
2018-10-05T05:07:04.569Z,60.5
2018-10-05T05:07:54.622Z,60.5
2018-10-05T05:08:44.190Z,60.5
2018-10-05T05:09:34.501Z,60.5
2018-10-05T05:10:24.651Z,60.4
2018-10-05T05:11:15.136Z,60.4
2018-10-05T05:12:05.073Z,60.4
2018-10-05T05:12:54.784Z,60.4
2018-10-05T05:13:43.991Z,60.4
2018-10-05T05:14:34.631Z,60.4
2018-10-05T05:15:24.959Z,60.4
2018-10-05T05:16:14.496Z,60.4
2018-10-05T05:17:04.498Z,60.4
2018-10-05T05:17:55.171Z,60.4
2018-10-05T05:18:44.986Z,60.4
2018-10-05T05:19:35.563Z,60.4
2018-10-05T05:20:25.595Z,60.4
2018-10-05T05:21:15.096Z,60.4
2018-10-05T05:22:04.922Z,60.4
2018-10-05T05:22:54.950Z,60.3
2018-10-05T05:23:45.583Z,60.3
2018-10-05T05:24:35.352Z,60.3
2018-10-05T05:25:25.606Z,60.3
2018-10-05T05:26:15.945Z,60.3
2018-10-05T05:27:06.293Z,60.3
2018-10-05T05:27:56.362Z,60.3
2018-10-05T05:28:46.451Z,60.3
2018-10-05T05:29:35.643Z,60.3
2018-10-05T05:30:26.779Z,60.3
2018-10-05T05:31:16.059Z,60.3
2018-10-05T05:32:06.401Z,60.3
2018-10-05T05:32:56.759Z,60.3
2018-10-05T05:33:47.552Z,60.3
2018-10-05T05:34:36.019Z,60.3
2018-10-05T05:35:26.893Z,60.3
2018-10-05T05:36:16.971Z,60.3
2018-10-05T05:37:06.732Z,60.3
2018-10-05T05:37:56.836Z,60.2
2018-10-05T05:38:47.106Z,60.2
2018-10-05T05:39:36.946Z,60.2
2018-10-05T05:40:27.755Z,60.2
2018-10-05T05:41:17.050Z,60.2
2018-10-05T05:42:07.373Z,60.1
2018-10-05T05:42:56.890Z,60.1
2018-10-05T05:43:47.557Z,60.1
2018-10-05T05:44:37.585Z,60.1
2018-10-05T05:45:27.360Z,60.1
2018-10-05T05:46:17.683Z,60.1
2018-10-05T05:47:07.748Z,60.1
2018-10-05T05:47:57.845Z,60.1
2018-10-05T05:48:48.133Z,60.1
2018-10-05T05:49:37.645Z,60.1
2018-10-05T05:50:27.723Z,60.1
2018-10-05T05:51:17.765Z,60.1
2018-10-05T05:52:08.177Z,60.1
2018-10-05T05:52:57.930Z,60.1
2018-10-05T05:53:48.610Z,60.1
2018-10-05T05:54:38.862Z,60.1
2018-10-05T05:55:28.114Z,60
2018-10-05T05:56:18.417Z,60
2018-10-05T05:57:07.935Z,60
2018-10-05T05:57:58.037Z,60
2018-10-05T05:58:48.612Z,60
2018-10-05T05:59:38.412Z,60
2018-10-05T06:00:28.779Z,59.9
2018-10-05T06:01:18.163Z,60
2018-10-05T06:02:08.857Z,59.9
2018-10-05T06:02:58.965Z,59.9
2018-10-05T06:03:49.012Z,60
2018-10-05T06:04:38.784Z,59.9
2018-10-05T06:05:28.852Z,59.9
2018-10-05T06:06:18.907Z,59.9
2018-10-05T06:07:08.976Z,59.9
2018-10-05T06:07:59.481Z,59.9
2018-10-05T06:08:49.111Z,59.9
2018-10-05T06:09:39.193Z,59.9
2018-10-05T06:10:29.464Z,59.9
2018-10-05T06:11:19.004Z,59.9
2018-10-05T06:12:09.057Z,59.9
2018-10-05T06:12:59.106Z,59.9
2018-10-05T06:13:49.497Z,59.8
2018-10-05T06:14:39.806Z,59.8
2018-10-05T06:15:30.177Z,59.9
2018-10-05T06:16:19.960Z,59.8
2018-10-05T06:17:09.667Z,59.8
2018-10-05T06:18:00.055Z,59.8
2018-10-05T06:18:50.106Z,59.8
2018-10-05T06:19:40.211Z,59.8
2018-10-05T06:20:30.301Z,59.8
2018-10-05T06:21:20.061Z,59.8
2018-10-05T06:22:10.741Z,59.8
2018-10-05T06:23:00.154Z,59.8
2018-10-05T06:23:50.178Z,59.8
2018-10-05T06:24:40.508Z,59.8
2018-10-05T06:25:30.626Z,59.8
2018-10-05T06:26:20.358Z,59.8
2018-10-05T06:27:11.108Z,59.8
2018-10-05T06:28:00.791Z,59.7
2018-10-05T06:28:50.825Z,59.7
2018-10-05T06:29:40.889Z,59.7
2018-10-05T06:30:31.449Z,59.7
2018-10-05T06:31:21.561Z,59.7
2018-10-05T06:32:10.585Z,59.7
2018-10-05T06:33:01.044Z,59.7
2018-10-05T06:33:51.218Z,59.6
2018-10-05T06:34:41.498Z,59.6
2018-10-05T06:35:31.043Z,59.6
2018-10-05T06:36:21.097Z,59.6
2018-10-05T06:37:12.005Z,59.6
2018-10-05T06:38:01.522Z,59.6
2018-10-05T06:38:51.124Z,59.6
2018-10-05T06:39:41.367Z,59.6
2018-10-05T06:40:31.491Z,59.6
2018-10-05T06:41:21.461Z,59.6
2018-10-05T06:42:13.262Z,59.6
2018-10-05T06:43:01.592Z,59.6
2018-10-05T06:43:51.353Z,59.6
2018-10-05T06:44:41.148Z,59.6
2018-10-05T06:45:32.069Z,59.6
2018-10-05T06:46:21.829Z,59.6
2018-10-05T06:47:11.642Z,59.6
2018-10-05T06:48:02.207Z,59.5
2018-10-05T06:48:51.729Z,59.5
2018-10-05T06:49:42.084Z,59.5
2018-10-05T06:50:32.152Z,59.5
2018-10-05T06:51:22.476Z,59.5
2018-10-05T06:52:11.989Z,59.5
2018-10-05T06:53:02.342Z,59.5
2018-10-05T06:53:52.119Z,59.4
2018-10-05T06:54:42.527Z,59.4
2018-10-05T06:55:32.229Z,59.4
2018-10-05T06:56:22.861Z,59.4
2018-10-05T06:57:12.896Z,59.4
2018-10-05T06:58:03.254Z,59.4
2018-10-05T06:58:52.481Z,59.4
2018-10-05T06:59:43.336Z,59.4
2018-10-05T07:00:32.854Z,59.4
2018-10-05T07:01:22.560Z,59.4
2018-10-05T07:02:13.304Z,59.4
2018-10-05T07:03:02.766Z,59.4
2018-10-05T07:03:53.111Z,59.4
2018-10-05T07:04:42.931Z,59.4
2018-10-05T07:05:33.258Z,59.4
2018-10-05T07:06:23.280Z,59.4
2018-10-05T07:07:13.388Z,59.3
2018-10-05T07:08:04.380Z,59.3
2018-10-05T07:08:53.481Z,59.3
2018-10-05T07:09:43.278Z,59.3
2018-10-05T07:10:33.029Z,59.3
2018-10-05T07:11:23.453Z,59.3
2018-10-05T07:12:13.421Z,59.3
2018-10-05T07:13:04.063Z,59.3
2018-10-05T07:13:53.863Z,59.3
2018-10-05T07:14:43.947Z,59.3
2018-10-05T07:15:34.218Z,59.3
2018-10-05T07:16:24.112Z,59.3
2018-10-05T07:17:14.625Z,59.3
2018-10-05T07:18:04.674Z,59.2
2018-10-05T07:18:54.277Z,59.2
2018-10-05T07:19:44.279Z,59.2
2018-10-05T07:20:34.351Z,59.2
2018-10-05T07:21:25.544Z,59.2
2018-10-05T07:22:14.177Z,59.2
2018-10-05T07:23:04.520Z,59.2
2018-10-05T07:23:54.594Z,59.2
2018-10-05T07:24:44.681Z,59.2
2018-10-05T07:25:34.422Z,59.2
2018-10-05T07:26:25.048Z,59.1
2018-10-05T07:27:15.159Z,59.1
2018-10-05T07:28:05.169Z,59.1
2018-10-05T07:28:55.260Z,59.1
2018-10-05T07:29:45.287Z,59.1
2018-10-05T07:30:35.399Z,59.1
2018-10-05T07:31:24.838Z,59.1
2018-10-05T07:32:15.235Z,59.1
2018-10-05T07:33:04.991Z,59.1
2018-10-05T07:33:55.353Z,59.1
2018-10-05T07:34:45.504Z,59.1
2018-10-05T07:35:35.449Z,59.1
2018-10-05T07:36:25.601Z,59.1
2018-10-05T07:37:15.992Z,59.1
2018-10-05T07:38:04.498Z,59.1
2018-10-05T07:38:55.978Z,59.1
2018-10-05T07:39:45.478Z,59.1
2018-10-05T07:40:36.101Z,59
2018-10-05T07:41:25.880Z,59
2018-10-05T07:42:15.935Z,59
2018-10-05T07:43:07.212Z,59
2018-10-05T07:43:56.016Z,59
2018-10-05T07:44:46.398Z,59
2018-10-05T07:45:36.150Z,58.9
2018-10-05T07:46:26.545Z,58.9
2018-10-05T07:47:16.316Z,58.9
2018-10-05T07:48:06.681Z,58.9
2018-10-05T07:48:56.946Z,58.9
2018-10-05T07:49:46.760Z,58.9
2018-10-05T07:50:36.282Z,58.9
2018-10-05T07:51:26.889Z,58.9
2018-10-05T07:52:16.689Z,58.9
2018-10-05T07:53:06.488Z,58.9
2018-10-05T07:53:57.348Z,58.9
2018-10-05T07:54:46.325Z,58.9
2018-10-05T07:55:36.965Z,58.9
2018-10-05T07:56:26.993Z,58.9
2018-10-05T07:57:16.891Z,58.9
2018-10-05T07:58:06.570Z,58.9
2018-10-05T07:58:57.458Z,58.8
2018-10-05T07:59:46.972Z,58.8
2018-10-05T08:00:37.567Z,58.8
2018-10-05T08:01:27.385Z,58.8
2018-10-05T08:02:17.697Z,58.8
2018-10-05T08:03:06.934Z,58.8
2018-10-05T08:03:57.817Z,58.8
2018-10-05T08:04:47.857Z,58.8
2018-10-05T08:05:37.179Z,58.8
2018-10-05T08:06:28.003Z,58.8
2018-10-05T08:07:18.095Z,58.8
2018-10-05T08:08:08.120Z,58.8
2018-10-05T08:08:58.219Z,58.8
2018-10-05T08:09:48.153Z,58.8
2018-10-05T08:10:37.831Z,58.8
2018-10-05T08:11:27.913Z,58.8
2018-10-05T08:12:17.709Z,58.8
2018-10-05T08:13:08.022Z,58.7
2018-10-05T08:13:57.794Z,58.7
2018-10-05T08:14:48.153Z,58.7
2018-10-05T08:15:37.919Z,58.7
2018-10-05T08:16:27.766Z,58.7
2018-10-05T08:17:18.546Z,58.7
2018-10-05T08:18:07.561Z,58.7
2018-10-05T08:18:58.503Z,58.7
2018-10-05T08:19:49.029Z,58.6
2018-10-05T08:20:38.771Z,58.7
2018-10-05T08:21:29.015Z,58.6
2018-10-05T08:22:18.438Z,58.6
2018-10-05T08:23:08.968Z,58.6
2018-10-05T08:23:59.011Z,58.6
2018-10-05T08:24:49.388Z,58.6
2018-10-05T08:25:39.414Z,58.6
2018-10-05T08:33:10.260Z,58.5
2018-10-05T08:34:00.813Z,58.5
2018-10-05T08:34:49.823Z,58.5
2018-10-05T08:35:39.875Z,58.5
2018-10-05T08:36:30.280Z,58.5
2018-10-05T08:37:19.753Z,58.5
2018-10-05T08:38:10.350Z,58.4
2018-10-05T08:39:00.123Z,58.4
2018-10-05T08:39:51.066Z,58.4
2018-10-05T08:40:40.535Z,58.4
2018-10-05T08:41:30.066Z,58.4
2018-10-05T08:42:20.907Z,58.4
2018-10-05T08:43:10.460Z,58.4
2018-10-05T08:44:00.292Z,58.5
2018-10-05T08:44:50.597Z,58.5
2018-10-05T08:47:21.002Z,58.6
2018-10-05T08:48:10.269Z,58.7
2018-10-05T08:49:00.037Z,58.8
2018-10-05T08:49:50.965Z,58.8
2018-10-05T08:50:40.757Z,58.8
2018-10-05T08:51:31.589Z,58.9
2018-10-05T08:52:21.949Z,58.9
2018-10-05T09:08:39.906Z,59.9
2018-10-05T09:09:29.688Z,59.9
2018-10-05T09:10:20.297Z,60
2018-10-05T09:11:09.714Z,60.1
2018-10-05T09:12:00.156Z,60.1
2018-10-05T09:12:50.187Z,60.2
2018-10-05T09:13:39.981Z,60.3
2018-10-05T09:14:29.775Z,60.3
2018-10-05T09:15:19.535Z,60.4
2018-10-05T09:16:09.870Z,60.4
2018-10-05T09:17:00.532Z,60.4
2018-10-05T09:17:50.949Z,60.6
2018-10-05T09:18:40.937Z,60.6
2018-10-05T09:19:30.117Z,60.6
2018-10-05T09:20:20.489Z,60.7
2018-10-05T09:21:10.820Z,60.8
2018-10-05T09:22:00.892Z,60.8
2018-10-05T09:22:51.202Z,60.9
2018-10-05T09:23:40.680Z,60.9
2018-10-05T09:24:31.085Z,61
2018-10-05T09:25:19.895Z,61.1
2018-10-05T09:26:11.189Z,61.1
2018-10-05T09:27:00.697Z,61.2
2018-10-05T09:27:51.306Z,61.3
2018-10-05T09:28:41.059Z,61.3
2018-10-05T09:29:31.424Z,61.4
2018-10-05T09:30:21.219Z,61.4
2018-10-05T09:31:10.714Z,61.5
2018-10-05T09:32:00.568Z,61.6
2018-10-05T09:32:50.838Z,61.6
2018-10-05T09:33:41.463Z,61.6
2018-10-05T09:34:32.053Z,61.7
2018-10-05T09:35:20.732Z,61.8
2018-10-05T09:36:12.178Z,61.8
2018-10-05T09:37:01.443Z,61.9
2018-10-05T09:37:52.921Z,61.9
2018-10-05T09:38:42.079Z,62
2018-10-05T09:39:31.902Z,62.1
2018-10-05T09:40:21.923Z,62.1
2018-10-05T09:41:11.681Z,62.2
2018-10-05T09:42:02.081Z,62.3
2018-10-05T09:42:52.646Z,62.3
2018-10-05T09:43:42.056Z,62.4
2018-10-05T09:44:32.266Z,62.4
2018-10-05T09:45:22.825Z,62.5
2018-10-05T09:46:12.924Z,62.5
2018-10-05T09:47:02.736Z,62.6
2018-10-05T09:47:52.284Z,62.6
2018-10-05T09:48:42.330Z,62.7
2018-10-05T09:49:32.156Z,62.8
2018-10-05T09:50:22.188Z,62.8
2018-10-05T09:51:13.263Z,62.9
2018-10-05T09:52:02.704Z,62.9
2018-10-05T09:52:52.908Z,63
2018-10-05T09:53:42.733Z,63
2018-10-05T09:54:33.238Z,63.1
2018-10-05T09:55:22.007Z,63.1
2018-10-05T09:56:12.105Z,63.2
2018-10-05T09:57:02.407Z,63.3
2018-10-05T09:57:53.319Z,63.3
2018-10-05T09:58:43.119Z,63.4
2018-10-05T09:59:33.161Z,63.4
2018-10-05T10:00:22.443Z,63.5
2018-10-05T10:01:13.525Z,63.6
2018-10-05T10:02:03.070Z,63.6
2018-10-05T10:02:53.663Z,63.6
2018-10-05T10:03:43.468Z,63.7
2018-10-05T10:04:33.547Z,63.8
2018-10-05T10:05:23.592Z,63.8
2018-10-05T10:06:13.451Z,63.9
2018-10-05T10:07:03.143Z,63.9
2018-10-05T10:07:54.361Z,64
2018-10-05T10:08:43.572Z,64.1
2018-10-05T10:09:33.627Z,64.1
2018-10-05T10:10:23.405Z,64.1
2018-10-05T10:11:13.500Z,64.2
2018-10-05T10:12:03.739Z,64.3
2018-10-05T10:12:53.597Z,64.3
2018-10-05T10:13:44.542Z,64.3
2018-10-05T10:14:34.706Z,64.4
2018-10-05T10:15:24.877Z,64.4
2018-10-05T10:16:14.070Z,64.5
2018-10-05T10:17:04.168Z,64.6
2018-10-05T10:17:54.724Z,64.6
2018-10-05T10:18:44.819Z,64.7
2018-10-05T10:19:34.282Z,64.8
2018-10-05T10:20:24.889Z,64.8
2018-10-05T10:21:15.107Z,64.8
2018-10-05T10:22:04.469Z,64.9
2018-10-05T10:22:55.111Z,64.9
2018-10-05T10:23:44.599Z,65
2018-10-05T10:24:35.471Z,65.1
2018-10-05T10:25:25.004Z,65.1
2018-10-05T10:26:15.628Z,65.2
2018-10-05T10:27:05.380Z,65.3
2018-10-05T10:27:55.702Z,65.3
2018-10-05T10:28:46.286Z,65.3
2018-10-05T10:29:36.534Z,65.4
2018-10-05T10:30:25.156Z,65.4
2018-10-05T10:31:15.725Z,65.5
2018-10-05T10:32:05.740Z,65.5
2018-10-05T10:32:55.554Z,65.6
2018-10-05T10:33:46.762Z,65.6
2018-10-05T10:34:36.667Z,65.7
2018-10-05T10:35:26.316Z,65.8
2018-10-05T10:36:16.373Z,65.8
2018-10-05T10:37:06.459Z,65.9
2018-10-05T10:37:55.626Z,65.9
2018-10-05T10:38:46.301Z,65.9
2018-10-05T10:39:36.868Z,66
2018-10-05T10:40:26.411Z,66.1
2018-10-05T10:41:16.726Z,66.1
2018-10-05T10:42:06.526Z,66.1
2018-10-05T10:42:56.004Z,66.2
2018-10-05T10:43:46.918Z,66.3
2018-10-05T10:44:36.688Z,66.3
2018-10-05T10:45:27.286Z,66.4
2018-10-05T10:46:17.093Z,66.4
2018-10-05T10:47:06.048Z,66.4
2018-10-05T10:47:56.945Z,66.5
2018-10-05T10:48:46.428Z,66.6
2018-10-05T10:49:36.776Z,66.6
2018-10-05T10:50:27.128Z,66.7
2018-10-05T10:51:16.718Z,66.7
2018-10-05T10:52:07.313Z,66.8
2018-10-05T10:52:56.918Z,66.8
2018-10-05T10:53:47.648Z,66.9
2018-10-05T10:54:37.435Z,66.9
2018-10-05T10:55:26.929Z,66.9
2018-10-05T10:56:18.835Z,67
2018-10-05T10:57:07.941Z,67.1
2018-10-05T10:57:57.960Z,67.1
2018-10-05T10:58:47.741Z,67.1
2018-10-05T10:59:37.523Z,67.2
2018-10-05T11:00:27.600Z,67.3
2018-10-05T11:01:18.165Z,67.3
2018-10-05T11:02:08.273Z,67.3
2018-10-05T11:02:57.987Z,67.4
2018-10-05T11:03:48.423Z,67.4
2018-10-05T11:04:39.585Z,67.4
2018-10-05T11:05:28.530Z,67.5
2018-10-05T11:06:17.712Z,67.6
2018-10-05T11:07:08.351Z,67.6
2018-10-05T11:07:58.514Z,67.6
2018-10-05T11:08:48.567Z,67.7
2018-10-05T11:10:28.400Z,67.8
2018-10-05T11:11:19.954Z,67.8
2018-10-05T11:12:09.052Z,67.8
2018-10-05T11:12:58.212Z,67.9
2018-10-05T11:13:48.561Z,67.9
2018-10-05T11:14:38.652Z,67.9
2018-10-05T11:15:29.239Z,68
2018-10-05T11:16:19.304Z,68.1
2018-10-05T11:17:09.925Z,68.1
2018-10-05T11:17:59.141Z,68.1
2018-10-05T11:18:49.191Z,68.1
2018-10-05T11:19:39.573Z,68.2
2018-10-05T11:20:29.612Z,68.3
2018-10-05T11:21:19.431Z,68.3
2018-10-05T11:22:09.735Z,68.3
2018-10-05T11:22:59.494Z,68.4
2018-10-05T11:23:49.876Z,68.4
2018-10-05T11:24:39.949Z,68.4
2018-10-05T11:25:29.695Z,68.4
2018-10-05T11:26:20.050Z,68.5
2018-10-05T11:27:09.562Z,68.5
2018-10-05T11:28:00.181Z,68.6
2018-10-05T11:28:49.656Z,68.6
2018-10-05T11:29:40.913Z,68.6
2018-10-05T11:30:29.801Z,68.6
2018-10-05T11:31:20.158Z,68.7
2018-10-05T11:32:10.473Z,68.8
2018-10-05T11:33:00.568Z,68.8
2018-10-05T11:33:50.311Z,68.8
2018-10-05T11:34:40.657Z,68.9
2018-10-05T11:35:30.438Z,68.9
2018-10-05T11:36:20.565Z,68.9
2018-10-05T11:37:10.899Z,68.9
2018-10-05T11:38:00.420Z,69
2018-10-05T11:38:51.010Z,69
2018-10-05T11:39:40.575Z,69.1
2018-10-05T11:40:30.867Z,69.1
2018-10-05T11:41:20.123Z,69.1
2018-10-05T11:42:10.726Z,69.2
2018-10-05T11:43:01.105Z,69.2
2018-10-05T11:43:50.603Z,69.2
2018-10-05T11:44:40.917Z,69.3
2018-10-05T11:45:30.992Z,69.3
2018-10-05T11:46:21.575Z,69.3
2018-10-05T11:47:10.820Z,69.3
2018-10-05T11:48:01.429Z,69.3
2018-10-05T11:48:51.244Z,69.4
2018-10-05T11:49:41.487Z,69.4
2018-10-05T11:50:30.565Z,69.4
2018-10-05T11:51:21.506Z,69.5
2018-10-05T11:52:11.557Z,69.5
2018-10-05T11:53:01.299Z,69.5
2018-10-05T11:53:51.665Z,69.6
2018-10-05T11:54:41.763Z,69.6
2018-10-05T11:55:31.803Z,69.6
2018-10-05T11:56:22.353Z,69.6
2018-10-05T11:57:11.652Z,69.7
2018-10-05T11:58:01.915Z,69.7
2018-10-05T11:58:52.230Z,69.8
2018-10-05T11:59:42.273Z,69.8
2018-10-05T12:00:31.882Z,69.8
2018-10-05T12:01:22.440Z,69.8
2018-10-05T12:02:12.763Z,69.8
2018-10-05T12:03:02.552Z,69.8
2018-10-05T12:03:53.380Z,69.8
2018-10-05T12:04:43.024Z,69.9
2018-10-05T12:05:32.551Z,69.9
2018-10-05T12:06:22.909Z,69.9
2018-10-05T12:07:13.628Z,69.9
2018-10-05T12:08:03.285Z,69.9